createdAt,value
2023-04-18T00:01:08.260Z,9.70
2023-04-18T00:06:10.621Z,10.65
2023-04-18T00:11:12.591Z,9.52
2023-04-18T00:16:15.133Z,9.43
2023-04-18T00:21:17.619Z,9.25
2023-04-18T00:26:19.846Z,7.88
2023-04-18T00:31:21.951Z,9.25
2023-04-18T00:41:28.445Z,11.25
2023-04-18T00:46:30.549Z,9.30
2023-04-18T00:56:36.522Z,10.50
2023-04-18T01:01:40.492Z,8.90
2023-04-18T01:06:44.290Z,11.68
2023-04-18T01:11:46.263Z,9.93
2023-04-18T01:16:51.668Z,10.63
2023-04-18T01:21:54.637Z,11.63
2023-04-18T01:26:57.536Z,6.47
2023-04-18T01:31:59.693Z,9.18
2023-04-18T01:42:03.656Z,10.20
2023-04-18T01:52:07.621Z,9.77
2023-04-18T02:07:56.247Z,9.27
2023-04-18T02:12:58.178Z,9.38
2023-04-18T02:18:00.697Z,13.82
2023-04-18T02:23:03.538Z,11.38
2023-04-18T02:28:05.657Z,9.35
2023-04-18T02:33:07.752Z,8.98
2023-04-18T02:43:11.685Z,9.70
2023-04-18T02:53:17.294Z,10.05
2023-04-18T02:58:19.263Z,8.27
2023-04-18T03:03:21.824Z,9.40
2023-04-18T03:08:24.172Z,8.88
2023-04-18T03:13:26.162Z,7.28
2023-04-18T03:18:28.155Z,8.85
2023-04-18T03:23:30.100Z,11.02
2023-04-18T03:28:32.101Z,10.57
2023-04-18T03:33:34.255Z,9.13
2023-04-18T03:38:36.234Z,9.68
2023-04-18T03:43:38.116Z,7.57
2023-04-18T03:48:40.142Z,10.43
2023-04-18T03:53:42.095Z,10.10
2023-04-18T03:58:44.130Z,8.95
2023-04-18T04:03:46.254Z,10.38
2023-04-18T04:13:50.269Z,8.95
2023-04-18T04:18:52.303Z,9.30
2023-04-18T04:23:54.316Z,9.82
2023-04-18T04:28:57.539Z,10.10
2023-04-18T04:33:59.489Z,9.70
2023-04-18T04:39:04.465Z,9.80
2023-04-18T04:44:07.045Z,8.50
2023-04-18T04:49:09.047Z,9.45
2023-04-18T04:54:11.175Z,8.90
2023-04-18T04:59:13.222Z,10.80
2023-04-18T05:04:15.637Z,10.77
2023-04-18T05:09:17.815Z,9.73
2023-04-18T05:14:21.014Z,11.55
2023-04-18T05:19:23.634Z,9.05
2023-04-18T05:24:25.742Z,10.77
2023-04-18T05:29:27.824Z,8.75
2023-04-18T05:34:30.319Z,9.63
2023-04-18T05:39:32.867Z,9.32
2023-04-18T05:44:35.021Z,9.15
2023-04-18T05:49:36.997Z,11.93
2023-04-18T05:54:38.954Z,12.90
2023-04-18T05:59:40.949Z,7.13
2023-04-18T06:04:43.316Z,10.73
2023-04-18T06:09:45.761Z,12.73
2023-04-18T06:14:48.027Z,9.00
2023-04-18T06:19:50.075Z,10.00
2023-04-18T06:29:54.271Z,9.32
2023-04-18T06:34:56.590Z,10.57
2023-04-18T06:39:59.893Z,10.77
2023-04-18T06:45:03.543Z,10.07
2023-04-18T06:50:10.498Z,9.20
2023-04-18T06:55:22.345Z,9.20
2023-04-18T07:00:24.849Z,7.22
2023-04-18T07:05:27.152Z,9.90
2023-04-18T07:10:29.993Z,9.82
2023-04-18T07:15:32.185Z,9.93
2023-04-18T07:20:34.498Z,10.02
2023-04-18T07:25:37.377Z,12.07
2023-04-18T07:30:40.066Z,10.75
2023-04-18T07:35:42.326Z,10.80
2023-04-18T07:40:48.314Z,9.93
2023-04-18T07:45:52.282Z,10.63
2023-04-18T07:50:55.355Z,11.32
2023-04-18T07:55:57.828Z,9.77
2023-04-18T08:01:00.146Z,10.05
2023-04-18T08:06:04.258Z,12.23
2023-04-18T08:11:08.537Z,10.45
2023-04-18T08:16:11.375Z,11.18
2023-04-18T08:21:24.198Z,10.70
2023-04-18T08:26:27.803Z,10.25
2023-04-18T08:31:31.931Z,11.70
2023-04-18T08:36:35.325Z,11.50
2023-04-18T08:41:38.601Z,12.02
2023-04-18T08:46:40.816Z,11.13
2023-04-18T08:51:44.890Z,11.32
2023-04-18T08:56:47.094Z,13.32
2023-04-18T09:01:57.010Z,10.90
2023-04-18T09:06:59.396Z,12.18
2023-04-18T09:12:08.311Z,9.98
2023-04-18T09:17:13.725Z,11.10
2023-04-18T09:22:17.445Z,10.20
2023-04-18T09:27:22.713Z,10.13
2023-04-18T09:32:30.928Z,10.60
2023-04-18T09:37:33.104Z,8.85
2023-04-18T09:42:37.870Z,10.43
2023-04-18T09:47:40.131Z,9.82
2023-04-18T09:52:43.832Z,11.90
2023-04-18T09:57:47.686Z,10.15
2023-04-18T10:03:21.886Z,9.98
2023-04-18T10:08:24.281Z,9.35
2023-04-18T10:13:28.353Z,12.35
2023-04-18T10:18:30.529Z,10.27
2023-04-18T10:23:37.251Z,9.98
2023-04-18T10:28:59.081Z,11.27
2023-04-18T10:34:05.709Z,9.80
2023-04-18T10:39:25.637Z,10.00
2023-04-18T10:44:27.881Z,9.65
2023-04-18T10:49:34.107Z,10.27
2023-04-18T10:54:43.057Z,11.27
2023-04-18T10:59:49.705Z,8.85
2023-04-18T11:05:02.121Z,11.38
2023-04-18T11:10:05.651Z,10.10
2023-04-18T11:15:12.001Z,8.77
2023-04-18T11:20:15.353Z,7.07
2023-04-18T11:25:19.465Z,8.00
2023-04-18T11:30:22.210Z,8.40
2023-04-18T11:35:24.760Z,8.95
2023-04-18T11:40:27.160Z,7.53
2023-04-18T11:45:29.607Z,7.45
2023-04-18T11:50:37.240Z,7.57
2023-04-18T11:55:39.428Z,5.63
2023-04-18T12:00:44.828Z,5.45
2023-04-18T12:05:48.766Z,6.95
2023-04-18T12:10:53.425Z,5.78
2023-04-18T12:15:55.535Z,5.63
2023-04-18T12:20:58.858Z,6.03
2023-04-18T12:26:02.803Z,6.13
2023-04-18T12:31:08.290Z,6.03
2023-04-18T12:36:10.726Z,5.95
2023-04-18T12:41:12.916Z,5.15
2023-04-18T12:46:14.950Z,5.18
2023-04-18T12:51:16.944Z,4.45
2023-04-18T12:56:19.036Z,5.20
2023-04-18T13:01:21.239Z,4.85
2023-04-18T13:06:24.808Z,4.30
2023-04-18T13:11:28.914Z,4.60
2023-04-18T13:16:31.518Z,4.70
2023-04-18T13:21:33.714Z,4.32
2023-04-18T13:26:37.802Z,4.70
2023-04-18T13:31:39.832Z,3.92
2023-04-18T13:36:42.055Z,3.65
2023-04-18T13:41:44.586Z,3.92
2023-04-18T13:46:46.627Z,3.83
2023-04-18T13:51:50.725Z,3.72
2023-04-18T13:57:03.568Z,3.70
2023-04-18T14:02:06.406Z,3.60
2023-04-18T14:07:09.475Z,4.18
2023-04-18T14:12:11.581Z,3.50
2023-04-18T14:17:13.763Z,4.15
2023-04-18T14:22:16.018Z,4.00
2023-04-18T14:27:18.208Z,3.63
2023-04-18T14:32:20.471Z,2.83
2023-04-18T14:37:22.533Z,3.70
2023-04-18T14:42:24.615Z,3.17
2023-04-18T14:47:32.016Z,3.70
2023-04-18T14:57:37.308Z,3.13
2023-04-18T15:02:39.952Z,3.47
2023-04-18T15:07:43.841Z,2.80
2023-04-18T15:12:48.765Z,3.42
2023-04-18T15:17:50.846Z,4.13
2023-04-18T15:22:53.100Z,3.67
2023-04-18T15:27:55.153Z,3.55
2023-04-18T15:32:57.745Z,3.22
2023-04-18T15:37:59.950Z,3.80
2023-04-18T15:43:02.194Z,3.65
2023-04-18T15:48:04.860Z,3.90
2023-04-18T15:53:07.113Z,3.80
2023-04-18T15:58:09.120Z,4.03
2023-04-18T16:03:11.527Z,3.42
2023-04-18T16:08:13.724Z,3.90
2023-04-18T16:13:15.852Z,3.67
2023-04-18T16:18:18.211Z,3.10
2023-04-18T16:23:21.247Z,3.55
2023-04-18T16:28:23.383Z,3.40
2023-04-18T16:33:26.446Z,3.33
2023-04-18T16:38:29.153Z,4.10
2023-04-18T16:43:31.409Z,3.72
2023-04-18T16:48:33.788Z,4.00
2023-04-18T16:53:36.404Z,3.75
2023-04-18T16:58:38.724Z,3.83
2023-04-18T17:03:43.199Z,4.90
2023-04-18T17:08:46.490Z,4.50
2023-04-18T17:13:50.468Z,4.03
2023-04-18T17:18:52.586Z,4.22
2023-04-18T17:23:55.471Z,4.53
2023-04-18T17:28:58.041Z,5.55
2023-04-18T17:34:01.488Z,4.75
2023-04-18T17:39:07.393Z,4.82
2023-04-18T17:44:11.164Z,4.60
2023-04-18T17:49:13.853Z,6.07
2023-04-18T17:54:16.781Z,4.78
2023-04-18T17:59:30.976Z,4.63
2023-04-18T18:04:34.569Z,5.28
2023-04-18T18:09:37.315Z,5.70
2023-04-18T18:14:41.747Z,6.88
2023-04-18T18:19:44.349Z,7.18
2023-04-18T18:24:47.460Z,6.07
2023-04-18T18:29:51.928Z,7.65
2023-04-18T18:34:55.500Z,6.88
2023-04-18T18:39:58.623Z,6.57
2023-04-18T18:45:01.966Z,6.38
2023-04-18T18:50:04.613Z,6.88
2023-04-18T18:55:09.596Z,7.03
2023-04-18T19:00:13.184Z,6.47
2023-04-18T19:05:18.466Z,7.10
2023-04-18T19:10:21.320Z,6.68
2023-04-18T19:15:25.536Z,6.85
2023-04-18T19:20:29.466Z,7.15
2023-04-18T19:25:33.163Z,6.75
2023-04-18T19:30:36.672Z,6.00
2023-04-18T19:35:39.526Z,5.72
2023-04-18T19:40:43.911Z,6.00
2023-04-18T19:45:49.698Z,6.80
2023-04-18T19:50:54.187Z,5.85
2023-04-18T19:56:00.657Z,6.10
2023-04-18T20:01:07.326Z,6.03
2023-04-18T20:06:10.013Z,6.28
2023-04-18T20:11:14.834Z,7.03
2023-04-18T20:16:18.163Z,7.65
2023-04-18T20:21:20.732Z,7.78
2023-04-18T20:26:23.265Z,8.68
2023-04-18T20:31:26.291Z,7.22
2023-04-18T20:36:31.038Z,7.07
2023-04-18T20:41:35.175Z,8.38
2023-04-18T20:46:37.793Z,8.55
2023-04-18T20:51:40.049Z,8.50
2023-04-18T20:56:42.576Z,8.13
2023-04-18T21:01:44.966Z,7.32
2023-04-18T21:06:47.340Z,9.15
2023-04-18T21:11:49.423Z,9.15
2023-04-18T21:16:51.387Z,9.65
2023-04-18T21:26:55.035Z,8.02
2023-04-18T21:36:59.740Z,8.40
2023-04-18T21:42:02.218Z,8.90
2023-04-18T21:47:04.209Z,7.90
2023-04-18T21:57:08.188Z,10.25
2023-04-18T22:02:10.197Z,8.52
2023-04-18T22:07:12.754Z,8.20
2023-04-18T22:12:15.857Z,7.43
2023-04-18T22:17:17.886Z,6.70
2023-04-18T22:22:20.093Z,6.60
2023-04-18T22:27:22.133Z,5.32
2023-04-18T22:32:24.337Z,5.35
2023-04-18T22:37:26.397Z,5.07
2023-04-18T22:47:32.157Z,5.13
2023-04-18T22:52:34.420Z,5.53
2023-04-18T22:57:36.663Z,6.40
2023-04-18T23:02:38.961Z,7.13
2023-04-18T23:07:41.181Z,6.97
2023-04-18T23:12:43.199Z,7.97
2023-04-18T23:17:45.304Z,9.05
2023-04-18T23:22:50.278Z,7.57
2023-04-18T23:27:52.329Z,7.80
2023-04-18T23:37:57.403Z,5.40
2023-04-18T23:42:59.340Z,5.68
2023-04-18T23:48:01.295Z,5.63
2023-04-18T23:58:05.320Z,5.00
